Time;durP1;ratioP1;P1;durP2;ratioP2;P2;SDS_P1;SDS_P2;PMS_P1;PMS_P2;Temp;Humidity;BMP_temperature;BMP_pressure;BME280_temperature;BME280_humidity;BME280_pressure;Samples;Min_cycle;Max_cycle;Signal;HPM_P1;HPM_P2
2022/03/13 00:00:51;;;;;;;27.63;14.40;;;;;;;-3.02;nan;-23729.31;4993603;28;20201;-75
2022/03/13 00:03:19;;;;;;;27.13;15.03;;;;;;;-2.49;nan;-23744.38;4992534;28;20215;-76
2022/03/13 00:05:48;;;;;;;31.17;14.93;;;;;;;-2.53;nan;-23743.38;4991471;28;20196;-75
2022/03/13 00:08:31;;;;;;;23.70;13.80;;;;;;;-2.48;nan;-23744.81;4992326;28;20564;-75
2022/03/13 00:11:14;;;;;;;28.70;13.23;;;;;;;-2.61;nan;-23741.09;4977413;28;20181;-75
2022/03/13 00:13:51;;;;;;;23.83;12.90;;;;;;;-2.50;nan;-23744.09;4992013;28;20612;-76
2022/03/13 00:16:18;;;;;;;23.13;12.60;;;;;;;-2.96;nan;-23731.03;4992761;28;20184;-77
2022/03/13 00:18:46;;;;;;;22.13;11.83;;;;;;;-3.29;nan;-23721.69;4992654;28;20696;-75
2022/03/13 00:21:14;;;;;;;21.93;11.57;;;;;;;-3.02;nan;-23729.44;4993073;28;20276;-75
2022/03/13 00:23:41;;;;;;;19.00;10.93;;;;;;;-3.09;nan;-23727.28;4992399;28;20179;-76
2022/03/13 00:26:07;;;;;;;19.07;11.00;;;;;;;-2.72;nan;-23737.94;4990844;28;20196;-76
2022/03/13 00:28:33;;;;;;;20.50;10.73;;;;;;;-3.39;nan;-23718.81;4991567;28;20192;-76
2022/03/13 00:30:58;;;;;;;20.13;10.50;;;;;;;-2.96;nan;-23731.16;4991499;28;20184;-76
2022/03/13 00:33:25;;;;;;;20.00;10.93;;;;;;;-2.92;nan;-23732.31;4992862;28;20573;-76
2022/03/13 00:35:50;;;;;;;20.73;10.57;;;;;;;-3.50;nan;-23715.63;4993023;28;20187;-75
2022/03/13 00:38:16;;;;;;;18.53;10.23;;;;;;;-2.98;nan;-23730.59;4992789;28;20165;-76
2022/03/13 00:40:48;;;;;;;20.60;10.30;;;;;;;-3.35;nan;-23719.97;4992247;28;20680;-76
2022/03/13 00:43:13;;;;;;;16.20;10.10;;;;;;;-2.92;nan;-23732.19;4993192;28;20611;-76
2022/03/13 00:45:38;;;;;;;18.63;10.50;;;;;;;-3.22;nan;-23723.84;4992870;28;20178;-76
2022/03/13 00:48:04;;;;;;;23.70;13.07;;;;;;;-3.89;nan;-23704.72;4991336;28;20535;-76
2022/03/13 00:50:30;;;;;;;19.00;10.90;;;;;;;-3.30;nan;-23721.53;4990971;28;20211;-75
2022/03/13 00:52:56;;;;;;;20.63;11.00;;;;;;;-3.63;nan;-23712.03;4991791;28;20176;-76
2022/03/13 00:55:22;;;;;;;21.17;11.30;;;;;;;-3.42;nan;-23717.94;4990878;28;20187;-76
2022/03/13 00:57:47;;;;;;;19.30;11.13;;;;;;;-3.20;nan;-23724.28;4992893;28;20176;-76
2022/03/13 01:00:13;;;;;;;24.73;12.73;;;;;;;-3.71;nan;-23709.75;4992328;28;20211;-76
2022/03/13 01:02:40;;;;;;;28.27;14.00;;;;;;;-3.94;nan;-23703.13;4993103;28;20576;-76
2022/03/13 01:05:10;;;;;;;26.63;15.67;;;;;;;-3.63;nan;-23712.03;4993059;28;20659;-76
2022/03/13 01:07:37;;;;;;;28.43;15.30;;;;;;;-3.47;nan;-23716.50;4991729;28;20184;-76
2022/03/13 01:10:06;;;;;;;27.43;15.43;;;;;;;-3.67;nan;-23710.91;4991586;28;20281;-76
2022/03/13 01:12:32;;;;;;;27.97;14.90;;;;;;;-3.23;nan;-23723.56;4991060;28;20270;-76
2022/03/13 01:14:58;;;;;;;27.50;14.50;;;;;;;-3.61;nan;-23712.75;4992421;28;20733;-75
2022/03/13 01:17:25;;;;;;;26.43;13.53;;;;;;;-3.23;nan;-23723.41;4992149;28;20173;-77
2022/03/13 01:19:50;;;;;;;25.10;13.90;;;;;;;-3.57;nan;-23713.91;4992215;28;20736;-75
2022/03/13 01:22:16;;;;;;;24.83;13.57;;;;;;;-3.24;nan;-23723.13;4990939;28;20290;-76
2022/03/13 01:24:46;;;;;;;27.00;13.50;;;;;;;-4.44;nan;-23689.03;4992341;28;20184;-76
2022/03/13 01:27:13;;;;;;;24.13;14.20;;;;;;;-3.71;nan;-23709.75;4994399;28;20185;-76
2022/03/13 01:29:40;;;;;;;26.30;14.43;;;;;;;-4.04;nan;-23700.38;4995976;28;20582;-76
2022/03/13 01:32:09;;;;;;;25.03;14.73;;;;;;;-3.49;nan;-23715.94;4994628;28;20181;-76
2022/03/13 01:34:38;;;;;;;30.03;14.47;;;;;;;-3.30;nan;-23721.41;4996027;28;20180;-76
2022/03/13 01:37:08;;;;;;;24.70;13.93;;;;;;;-3.58;nan;-23713.63;4995762;28;20719;-76
2022/03/13 01:39:34;;;;;;;27.70;14.67;;;;;;;-3.52;nan;-23715.22;4996173;28;20197;-76
2022/03/13 01:42:00;;;;;;;29.50;15.13;;;;;;;-3.88;nan;-23705.00;4995358;28;20241;-77
2022/03/13 01:44:26;;;;;;;26.60;14.90;;;;;;;-3.35;nan;-23719.97;4995753;28;20182;-75
2022/03/13 01:46:52;;;;;;;30.10;15.33;;;;;;;-3.37;nan;-23719.53;4995900;28;20173;-75
2022/03/13 01:49:18;;;;;;;35.33;16.10;;;;;;;-3.59;nan;-23713.19;4995697;28;20184;-76
2022/03/13 01:51:44;;;;;;;32.77;15.60;;;;;;;-3.40;nan;-23718.66;4995992;28;20188;-76
2022/03/13 01:54:11;;;;;;;32.90;16.37;;;;;;;-3.71;nan;-23709.75;4995697;28;20554;-76
2022/03/13 01:56:38;;;;;;;32.93;16.80;;;;;;;-3.63;nan;-23712.19;4995651;28;20638;-75
2022/03/13 01:59:06;;;;;;;32.07;16.10;;;;;;;-3.76;nan;-23708.31;4995630;28;20197;-76
2022/03/13 02:01:32;;;;;;;33.20;16.33;;;;;;;-3.93;nan;-23703.56;4995240;28;20174;-75
2022/03/13 02:03:58;;;;;;;33.90;15.93;;;;;;;-3.42;nan;-23717.94;4996561;28;20280;-75
2022/03/13 02:06:24;;;;;;;30.90;15.73;;;;;;;-3.81;nan;-23706.88;4999105;28;20558;-75
2022/03/13 02:08:51;;;;;;;32.57;16.60;;;;;;;-3.93;nan;-23703.56;4998400;28;20180;-75
2022/03/13 02:11:19;;;;;;;31.67;16.20;;;;;;;-3.70;nan;-23710.03;4995597;28;20646;-76
2022/03/13 02:13:55;;;;;;;40.23;16.67;;;;;;;-4.34;nan;-23691.91;4995699;28;20181;-75
2022/03/13 02:16:21;;;;;;;34.93;16.50;;;;;;;-4.08;nan;-23699.25;4993664;28;20258;-76
2022/03/13 02:18:49;;;;;;;31.80;15.80;;;;;;;-3.90;nan;-23704.28;4995792;28;21078;-76
2022/03/13 02:21:16;;;;;;;41.33;17.03;;;;;;;-4.17;nan;-23696.66;4995621;28;20244;-76
2022/03/13 02:23:42;;;;;;;33.00;15.43;;;;;;;-4.34;nan;-23691.91;4995184;28;20185;-76
2022/03/13 02:26:08;;;;;;;31.47;15.57;;;;;;;-4.19;nan;-23696.06;4995286;28;20246;-76
2022/03/13 02:28:35;;;;;;;32.57;16.13;;;;;;;-4.32;nan;-23692.31;4995122;28;20178;-75
2022/03/13 02:31:11;;;;;;;31.47;15.20;;;;;;;-4.41;nan;-23689.88;4993411;28;20208;-76
2022/03/13 02:33:38;;;;;;;30.97;16.20;;;;;;;-4.22;nan;-23695.34;4995402;28;20227;-77
2022/03/13 02:36:05;;;;;;;29.97;14.77;;;;;;;-4.37;nan;-23690.88;4994968;28;20241;-75
2022/03/13 02:38:31;;;;;;;27.60;14.03;;;;;;;-3.90;nan;-23704.28;4994209;28;20176;-76
2022/03/13 02:40:58;;;;;;;32.33;16.10;;;;;;;-4.04;nan;-23700.38;4993660;28;20178;-75
2022/03/13 02:43:24;;;;;;;34.60;15.93;;;;;;;-4.53;nan;-23686.56;4993257;28;20222;-75
2022/03/13 02:45:54;;;;;;;31.53;15.37;;;;;;;-4.62;nan;-23683.97;4994719;28;20176;-75
2022/03/13 02:48:19;;;;;;;42.70;15.97;;;;;;;-4.62;nan;-23683.81;5026161;28;20231;-75
2022/03/13 02:50:45;;;;;;;32.90;15.97;;;;;;;-4.70;nan;-23681.53;4993279;28;20185;-76
2022/03/13 02:53:14;;;;;;;30.17;15.83;;;;;;;-4.52;nan;-23686.84;4994798;28;20230;-76
2022/03/13 02:55:40;;;;;;;29.60;14.70;;;;;;;-4.30;nan;-23692.91;4994140;28;20231;-77
2022/03/13 02:58:06;;;;;;;29.70;15.13;;;;;;;-4.51;nan;-23687.16;4993363;28;20181;-76
2022/03/13 03:00:46;;;;;;;34.97;15.30;;;;;;;-3.97;nan;-23702.41;4994249;28;20247;-76
2022/03/13 03:03:20;;;;;;;26.00;13.20;;;;;;;-4.10;nan;-23698.66;4994314;28;20181;-76
2022/03/13 03:05:46;;;;;;;26.23;12.97;;;;;;;-3.72;nan;-23709.47;4994177;28;20184;-75
2022/03/13 03:08:12;;;;;;;29.07;14.47;;;;;;;-4.50;nan;-23687.44;4992505;28;20246;-75
2022/03/13 03:10:38;;;;;;;26.37;13.57;;;;;;;-3.65;nan;-23711.47;4992249;28;20182;-76
2022/03/13 03:13:05;;;;;;;26.60;12.90;;;;;;;-3.83;nan;-23706.44;4993244;28;20200;-76
2022/03/13 03:15:31;;;;;;;23.57;12.33;;;;;;;-3.30;nan;-23721.53;4994020;28;20192;-76
2022/03/13 03:17:57;;;;;;;22.67;12.23;;;;;;;-3.90;nan;-23704.28;4991626;28;20619;-76
2022/03/13 03:20:23;;;;;;;25.00;12.93;;;;;;;-3.94;nan;-23703.13;4994251;28;20206;-76
2022/03/13 03:22:52;;;;;;;28.87;13.93;;;;;;;-3.59;nan;-23713.34;4994422;28;20169;-76
2022/03/13 03:25:23;;;;;;;29.30;14.03;;;;;;;-4.02;nan;-23700.97;4992482;28;20182;-76
2022/03/13 03:27:54;;;;;;;22.27;12.40;;;;;;;-3.74;nan;-23708.88;4994468;28;20672;-77
2022/03/13 03:30:25;;;;;;;25.60;13.20;;;;;;;-3.54;nan;-23714.63;4994331;28;20166;-76
2022/03/13 03:32:52;;;;;;;25.50;12.93;;;;;;;-3.76;nan;-23708.31;4994166;28;20726;-76
2022/03/13 03:35:19;;;;;;;27.00;13.70;;;;;;;-3.35;nan;-23719.97;4993243;28;20185;-76
2022/03/13 03:37:49;;;;;;;26.97;12.13;;;;;;;-3.40;nan;-23718.53;4993467;28;20195;-75
2022/03/13 03:40:15;;;;;;;22.67;13.03;;;;;;;-3.69;nan;-23710.47;4994314;28;20209;-76
2022/03/13 03:42:42;;;;;;;23.73;13.07;;;;;;;-3.57;nan;-23713.78;4992230;28;20327;-76
2022/03/13 03:45:08;;;;;;;23.37;12.57;;;;;;;-3.50;nan;-23715.78;4992700;28;20334;-76
2022/03/13 03:47:33;;;;;;;25.00;12.93;;;;;;;-3.71;nan;-23709.88;4992317;28;20174;-76
2022/03/13 03:49:59;;;;;;;24.80;12.70;;;;;;;-3.44;nan;-23717.50;4993293;28;20207;-76
2022/03/13 03:52:24;;;;;;;25.50;12.87;;;;;;;-3.83;nan;-23706.28;4993290;28;20227;-75
2022/03/13 03:54:51;;;;;;;25.93;13.03;;;;;;;-3.54;nan;-23714.50;4993841;28;20188;-76
2022/03/13 03:57:17;;;;;;;24.47;12.90;;;;;;;-3.51;nan;-23715.34;4992988;28;20183;-76
2022/03/13 03:59:42;;;;;;;21.97;11.80;;;;;;;-3.49;nan;-23715.94;4993331;28;20205;-76
2022/03/13 04:02:08;;;;;;;27.27;12.57;;;;;;;-3.46;nan;-23716.94;4993536;28;20260;-76
2022/03/13 04:04:33;;;;;;;24.17;12.47;;;;;;;-3.82;nan;-23706.56;4993687;28;20191;-75
2022/03/13 04:06:59;;;;;;;24.97;13.37;;;;;;;-4.22;nan;-23695.34;4993039;28;20172;-76
2022/03/13 04:09:24;;;;;;;28.07;13.77;;;;;;;-3.20;nan;-23724.28;4993521;28;20554;-76
2022/03/13 04:11:51;;;;;;;23.27;12.63;;;;;;;-3.15;nan;-23725.72;4993523;28;20188;-76
2022/03/13 04:14:18;;;;;;;27.30;12.57;;;;;;;-3.54;nan;-23714.50;4991222;28;20189;-76
2022/03/13 04:16:44;;;;;;;26.20;13.43;;;;;;;-3.46;nan;-23716.94;4988825;28;20636;-76
2022/03/13 04:19:09;;;;;;;27.43;14.17;;;;;;;-3.63;nan;-23712.19;4989590;28;20693;-76
2022/03/13 04:21:39;;;;;;;38.53;14.50;;;;;;;-3.55;nan;-23714.34;4992549;28;20180;-76
2022/03/13 04:24:06;;;;;;;28.73;14.50;;;;;;;-3.86;nan;-23705.56;4993191;28;20172;-76
2022/03/13 04:26:31;;;;;;;30.27;13.87;;;;;;;-4.00;nan;-23701.53;4992868;28;20169;-76
2022/03/13 04:28:57;;;;;;;28.23;12.67;;;;;;;-3.62;nan;-23712.47;4992974;28;20175;-76
2022/03/13 04:31:24;;;;;;;29.20;13.10;;;;;;;-3.14;nan;-23726.00;4992697;28;20216;-75
2022/03/13 04:33:49;;;;;;;25.73;12.97;;;;;;;-3.08;nan;-23727.72;4992798;28;20651;-76
2022/03/13 04:36:22;;;;;;;28.83;13.37;;;;;;;-3.75;nan;-23708.59;4991504;28;20232;-76
2022/03/13 04:38:48;;;;;;;25.80;13.53;;;;;;;-3.34;nan;-23720.38;4992782;28;20232;-76
2022/03/13 04:41:13;;;;;;;26.77;13.87;;;;;;;-3.37;nan;-23719.53;4991187;28;20184;-77
2022/03/13 04:43:39;;;;;;;25.30;12.93;;;;;;;-3.40;nan;-23718.53;4992811;28;20172;-76
2022/03/13 04:46:05;;;;;;;32.47;14.40;;;;;;;-3.34;nan;-23720.25;4992830;28;20604;-76
2022/03/13 04:48:32;;;;;;;27.37;14.83;;;;;;;-3.64;nan;-23711.91;4990845;28;20334;-77
2022/03/13 04:50:59;;;;;;;28.40;13.67;;;;;;;-3.14;nan;-23726.00;4992344;28;20184;-75
2022/03/13 04:53:26;;;;;;;29.80;14.37;;;;;;;-3.03;nan;-23729.00;4991056;28;20191;-77
2022/03/13 04:55:51;;;;;;;27.60;14.23;;;;;;;-3.02;nan;-23729.44;4992703;28;20650;-76
2022/03/13 04:58:18;;;;;;;24.37;13.47;;;;;;;-3.03;nan;-23729.16;4992523;28;20231;-76
2022/03/13 05:00:46;;;;;;;29.37;14.97;;;;;;;-2.93;nan;-23732.03;4991782;28;20212;-76
2022/03/13 05:03:11;;;;;;;29.80;14.77;;;;;;;-2.80;nan;-23735.63;4992400;28;20172;-77
2022/03/13 05:05:39;;;;;;;30.73;15.33;;;;;;;-2.83;nan;-23734.78;4992857;28;20169;-76
2022/03/13 05:08:05;;;;;;;28.03;14.13;;;;;;;-2.58;nan;-23741.81;4991131;28;20185;-77
2022/03/13 05:10:36;;;;;;;31.00;15.80;;;;;;;-2.82;nan;-23735.19;4992478;28;20260;-76
2022/03/13 05:13:06;;;;;;;27.90;15.47;;;;;;;-2.89;nan;-23733.03;4992490;28;20168;-76
2022/03/13 05:15:33;;;;;;;31.13;16.00;;;;;;;-3.07;nan;-23728.00;4992090;28;20177;-75
2022/03/13 05:17:59;;;;;;;27.30;14.17;;;;;;;-2.54;nan;-23742.97;4992548;28;20173;-76
2022/03/13 05:20:24;;;;;;;28.53;13.53;;;;;;;-2.48;nan;-23744.69;4992134;28;20209;-75
2022/03/13 05:22:50;;;;;;;29.23;14.53;;;;;;;-2.56;nan;-23742.38;4992195;28;20345;-76
2022/03/13 05:25:16;;;;;;;27.87;13.33;;;;;;;-2.66;nan;-23739.66;4990889;28;20185;-76
2022/03/13 05:27:42;;;;;;;26.13;13.03;;;;;;;-2.63;nan;-23740.38;4991624;28;20648;-76
2022/03/13 05:30:08;;;;;;;26.10;13.43;;;;;;;-2.23;nan;-23751.88;4991992;28;20189;-76
2022/03/13 05:32:37;;;;;;;21.97;12.87;;;;;;;-2.53;nan;-23743.38;4991275;28;20622;-77
2022/03/13 05:35:03;;;;;;;22.37;11.97;;;;;;;-2.07;nan;-23756.31;4992499;28;20187;-76
2022/03/13 05:37:29;;;;;;;27.37;14.00;;;;;;;-2.03;nan;-23757.47;4992007;28;20592;-76
2022/03/13 05:39:54;;;;;;;22.97;12.30;;;;;;;-2.02;nan;-23757.75;4992217;28;20200;-76
2022/03/13 05:42:24;;;;;;;24.20;13.00;;;;;;;-1.73;nan;-23765.94;4991313;28;20300;-76
2022/03/13 05:44:53;;;;;;;23.27;13.37;;;;;;;-1.64;nan;-23768.66;4992379;28;20176;-79
2022/03/13 05:47:19;;;;;;;22.43;12.87;;;;;;;-1.30;nan;-23778.28;4992219;28;20230;-76
2022/03/13 05:49:46;;;;;;;27.07;12.73;;;;;;;-1.38;nan;-23776.13;4992763;28;20165;-76
2022/03/13 05:52:14;;;;;;;23.53;13.60;;;;;;;-1.21;nan;-23780.72;4991077;28;20181;-76
2022/03/13 05:54:42;;;;;;;26.90;12.63;;;;;;;-1.22;nan;-23780.56;4990780;28;20251;-77
2022/03/13 05:57:09;;;;;;;24.03;12.50;;;;;;;-1.15;nan;-23782.56;4990601;28;20177;-76
2022/03/13 05:59:39;;;;;;;21.30;12.20;;;;;;;-1.26;nan;-23779.28;4990562;28;20297;-77
2022/03/13 06:02:06;;;;;;;26.27;13.07;;;;;;;-0.89;nan;-23789.88;4990074;28;20301;-76
2022/03/13 06:04:32;;;;;;;22.27;12.13;;;;;;;-0.39;nan;-23804.06;4992305;28;20189;-79
2022/03/13 06:06:59;;;;;;;17.30;10.50;;;;;;;-0.45;nan;-23802.50;4990593;28;20638;-78
2022/03/13 06:09:25;;;;;;;22.43;10.53;;;;;;;-0.39;nan;-23804.06;4992313;28;20525;-78
2022/03/13 06:11:50;;;;;;;16.87;10.10;;;;;;;-0.38;nan;-23804.22;4992284;28;20262;-80
2022/03/13 06:14:18;;;;;;;16.70;10.07;;;;;;;-0.08;nan;-23812.97;4997332;28;20181;-77
2022/03/13 06:16:44;;;;;;;15.67;10.07;;;;;;;0.27;nan;-23822.69;4994076;28;20191;-80
2022/03/13 06:19:09;;;;;;;15.37;9.63;;;;;;;0.52;nan;-23829.72;5026813;28;20204;-80
2022/03/13 06:21:35;;;;;;;18.53;10.63;;;;;;;0.82;nan;-23838.44;4992749;28;20196;-77
2022/03/13 06:24:00;;;;;;;16.33;9.33;;;;;;;0.98;nan;-23842.72;4993515;28;20192;-77
2022/03/13 06:26:26;;;;;;;15.97;9.40;;;;;;;1.32;nan;-23852.44;4992437;28;20559;-77
2022/03/13 06:28:51;;;;;;;15.83;10.10;;;;;;;1.40;nan;-23854.75;4994865;28;20284;-75
2022/03/13 06:31:18;;;;;;;16.23;10.03;;;;;;;1.81;nan;-23866.16;4993413;28;20209;-77
2022/03/13 06:33:43;;;;;;;18.77;10.13;;;;;;;1.60;nan;-23860.47;4993302;28;20314;-75
2022/03/13 06:36:10;;;;;;;15.73;9.23;;;;;;;2.36;nan;-23881.88;4994773;28;20558;-76
2022/03/13 06:38:35;;;;;;;15.40;8.57;;;;;;;2.38;nan;-23882.44;4994759;28;20160;-75
2022/03/13 06:41:01;;;;;;;14.67;9.13;;;;;;;2.11;nan;-23874.75;4989417;28;20199;-75
2022/03/13 06:43:26;;;;;;;15.40;9.37;;;;;;;2.67;nan;-23890.72;4991685;28;20228;-75
2022/03/13 06:45:51;;;;;;;12.70;8.03;;;;;;;2.86;nan;-23895.88;4994178;28;20259;-74
2022/03/13 06:48:21;;;;;;;13.90;7.63;;;;;;;2.93;nan;-23897.88;4994435;28;20169;-75
2022/03/13 06:50:46;;;;;;;10.40;6.80;;;;;;;2.47;nan;-23885.03;4994241;28;20648;-74
2022/03/13 06:53:12;;;;;;;9.30;6.00;;;;;;;2.54;nan;-23887.03;4994223;28;20181;-76
2022/03/13 06:55:38;;;;;;;11.87;7.03;;;;;;;3.18;nan;-23905.00;4994077;28;20191;-76
2022/03/13 06:58:03;;;;;;;11.00;7.20;;;;;;;3.42;nan;-23911.69;4994125;28;20644;-75
2022/03/13 07:00:28;;;;;;;11.93;7.00;;;;;;;3.52;nan;-23914.69;4994178;28;20598;-75
2022/03/13 07:02:54;;;;;;;11.53;6.87;;;;;;;3.45;nan;-23912.56;4994092;28;20182;-75
2022/03/13 07:05:19;;;;;;;10.07;7.00;;;;;;;3.95;nan;-23926.81;4994021;28;20207;-76
2022/03/13 07:07:45;;;;;;;14.53;7.17;;;;;;;4.16;nan;-23932.50;4992987;28;20606;-75
2022/03/13 07:10:12;;;;;;;10.10;6.90;;;;;;;3.62;nan;-23917.25;4993701;28;20210;-75
2022/03/13 07:12:40;;;;;;;12.27;5.90;;;;;;;3.83;nan;-23923.38;4992974;28;20200;-75
2022/03/13 07:15:10;;;;;;;9.80;6.50;;;;;;;4.00;nan;-23928.09;4992631;28;20195;-74
2022/03/13 07:17:36;;;;;;;10.00;5.80;;;;;;;3.62;nan;-23917.25;4993717;28;20177;-74
2022/03/13 07:20:02;;;;;;;7.77;5.63;;;;;;;4.12;nan;-23931.34;4990639;28;20269;-73
2022/03/13 07:22:27;;;;;;;8.50;6.13;;;;;;;4.06;nan;-23929.66;4992959;28;20176;-76
2022/03/13 07:24:52;;;;;;;13.13;7.87;;;;;;;3.91;nan;-23925.53;4993526;28;20649;-75
2022/03/13 07:27:18;;;;;;;14.53;7.80;;;;;;;4.33;nan;-23937.34;4993917;28;20181;-75
2022/03/13 07:29:43;;;;;;;14.83;8.33;;;;;;;4.26;nan;-23935.50;4993740;28;20202;-75
2022/03/13 07:32:09;;;;;;;8.80;6.00;;;;;;;2.82;nan;-23894.72;4993973;28;20619;-76
2022/03/13 07:34:34;;;;;;;8.93;5.57;;;;;;;3.88;nan;-23924.66;4993448;28;20177;-76
2022/03/13 07:37:00;;;;;;;11.63;6.70;;;;;;;3.49;nan;-23913.84;4992935;28;20177;-75
2022/03/13 07:39:25;;;;;;;7.83;5.73;;;;;;;3.77;nan;-23921.69;4993282;28;20232;-75
2022/03/13 07:41:52;;;;;;;9.13;5.53;;;;;;;3.58;nan;-23916.25;4993590;28;20231;-75
2022/03/13 07:44:18;;;;;;;11.23;5.87;;;;;;;4.19;nan;-23933.34;4993246;28;20186;-76
2022/03/13 07:46:43;;;;;;;8.50;5.83;;;;;;;4.42;nan;-23940.03;4993238;28;20637;-77
2022/03/13 07:49:09;;;;;;;7.67;5.50;;;;;;;3.98;nan;-23927.50;4993132;28;20200;-76
2022/03/13 07:51:35;;;;;;;7.40;5.23;;;;;;;4.41;nan;-23939.75;4991073;28;20227;-76
2022/03/13 07:54:01;;;;;;;7.03;5.17;;;;;;;4.35;nan;-23938.06;4993152;28;20374;-75
2022/03/13 07:56:28;;;;;;;8.67;5.37;;;;;;;4.18;nan;-23933.22;4993285;28;20256;-76
2022/03/13 07:58:53;;;;;;;7.00;4.30;;;;;;;4.10;nan;-23930.78;4993072;28;20172;-75
2022/03/13 08:01:19;;;;;;;7.73;5.17;;;;;;;4.17;nan;-23932.94;4992896;28;20176;-76
2022/03/13 08:03:45;;;;;;;9.60;5.97;;;;;;;4.43;nan;-23940.34;4993105;28;20209;-75
2022/03/13 08:06:11;;;;;;;7.90;5.90;;;;;;;4.52;nan;-23942.75;4992935;28;20177;-76
2022/03/13 08:08:37;;;;;;;7.37;5.10;;;;;;;4.49;nan;-23941.75;4992543;28;20176;-75
2022/03/13 08:11:03;;;;;;;6.60;4.73;;;;;;;4.37;nan;-23938.47;4991654;28;20169;-75
2022/03/13 08:13:28;;;;;;;8.10;5.43;;;;;;;4.32;nan;-23937.06;4992986;28;20651;-75
2022/03/13 08:15:53;;;;;;;7.80;5.00;;;;;;;4.68;nan;-23947.31;4992855;28;20767;-76
2022/03/13 08:18:19;;;;;;;7.07;5.20;;;;;;;4.51;nan;-23942.31;4992751;28;20592;-76
2022/03/13 08:20:45;;;;;;;5.97;4.43;;;;;;;4.88;nan;-23953.00;4992568;28;20212;-75
2022/03/13 08:23:10;;;;;;;7.63;5.20;;;;;;;4.73;nan;-23948.59;4992268;28;20199;-76
2022/03/13 08:25:36;;;;;;;6.80;4.73;;;;;;;5.01;nan;-23956.56;4992429;28;20177;-76
2022/03/13 08:28:02;;;;;;;7.40;5.10;;;;;;;4.87;nan;-23952.72;4991156;28;20181;-77
2022/03/13 08:30:28;;;;;;;6.00;4.23;;;;;;;4.94;nan;-23954.56;4992162;28;20635;-75
2022/03/13 08:32:54;;;;;;;7.37;4.73;;;;;;;5.33;nan;-23965.50;4990862;28;20216;-76
2022/03/13 08:35:20;;;;;;;8.47;5.23;;;;;;;5.55;nan;-23971.63;4991772;28;20177;-75
2022/03/13 08:37:45;;;;;;;6.63;4.63;;;;;;;6.22;nan;-23990.53;4992153;28;20200;-76
2022/03/13 08:40:12;;;;;;;9.33;6.07;;;;;;;6.40;nan;-23995.50;4992366;28;20233;-75
2022/03/13 08:42:37;;;;;;;6.43;4.30;;;;;;;6.42;nan;-23996.06;5007582;28;20236;-76
2022/03/13 08:45:03;;;;;;;6.57;4.80;;;;;;;6.27;nan;-23991.81;4992505;28;20236;-76
2022/03/13 08:47:29;;;;;;;7.10;5.03;;;;;;;6.28;nan;-23992.09;4990797;28;20648;-75
2022/03/13 08:49:55;;;;;;;9.03;5.30;;;;;;;5.99;nan;-23984.00;5007058;28;20270;-76
2022/03/13 08:52:22;;;;;;;7.57;5.10;;;;;;;5.92;nan;-23982.00;4991617;28;20682;-76
2022/03/13 08:54:47;;;;;;;17.07;8.90;;;;;;;5.94;nan;-23982.72;4992053;28;20184;-75
2022/03/13 08:57:13;;;;;;;10.07;5.93;;;;;;;6.56;nan;-24000.19;4989859;28;20196;-75
2022/03/13 08:59:38;;;;;;;8.30;4.83;;;;;;;6.21;nan;-23990.38;4991908;28;20250;-76
2022/03/13 09:02:05;;;;;;;7.80;5.00;;;;;;;6.94;nan;-24010.81;4991798;28;20204;-75
2022/03/13 09:04:32;;;;;;;7.30;5.20;;;;;;;6.60;nan;-24001.19;4992026;28;20254;-74
2022/03/13 09:06:58;;;;;;;9.57;5.50;;;;;;;6.92;nan;-24010.13;4991715;28;20168;-75
2022/03/13 09:09:25;;;;;;;7.57;4.80;;;;;;;6.60;nan;-24001.19;4991904;28;20255;-76
2022/03/13 09:11:51;;;;;;;6.00;4.80;;;;;;;6.86;nan;-24008.56;4992336;28;20605;-75
2022/03/13 09:14:17;;;;;;;9.03;4.60;;;;;;;6.63;nan;-24002.03;4990693;28;20177;-75
2022/03/13 09:16:45;;;;;;;6.13;4.40;;;;;;;6.51;nan;-23998.63;4991902;28;20177;-76
2022/03/13 09:19:11;;;;;;;5.57;4.60;;;;;;;6.77;nan;-24005.84;4991763;28;20235;-75
2022/03/13 09:21:39;;;;;;;7.77;4.50;;;;;;;6.30;nan;-23992.66;4991832;28;20172;-75
2022/03/13 09:24:07;;;;;;;7.40;4.90;;;;;;;6.47;nan;-23997.63;4993345;28;20176;-75
2022/03/13 09:26:34;;;;;;;6.63;4.30;;;;;;;6.96;nan;-24011.38;4992978;28;20168;-75
2022/03/13 09:29:03;;;;;;;5.73;3.93;;;;;;;6.88;nan;-24008.97;4991897;28;20255;-74
2022/03/13 09:31:29;;;;;;;5.50;3.83;;;;;;;6.80;nan;-24006.84;4990438;28;20537;-75
2022/03/13 09:33:54;;;;;;;5.53;4.13;;;;;;;6.84;nan;-24008.00;4991334;28;20184;-75
2022/03/13 09:36:20;;;;;;;6.00;3.93;;;;;;;6.87;nan;-24008.84;4991805;28;20177;-75
2022/03/13 09:38:45;;;;;;;5.93;3.77;;;;;;;6.47;nan;-23997.47;4990475;28;20696;-75
2022/03/13 09:41:12;;;;;;;4.23;3.37;;;;;;;7.13;nan;-24016.06;4989919;28;20268;-75
2022/03/13 09:43:39;;;;;;;7.27;4.53;;;;;;;7.43;nan;-24024.44;4991935;28;20231;-75
2022/03/13 09:46:05;;;;;;;7.97;5.27;;;;;;;7.59;nan;-24028.97;4992449;28;20181;-75
2022/03/13 09:48:36;;;;;;;5.47;3.83;;;;;;;7.53;nan;-24027.28;4995087;28;20256;-76
2022/03/13 09:51:04;;;;;;;6.67;4.10;;;;;;;7.55;nan;-24027.97;4995610;28;20168;-74
2022/03/13 09:53:31;;;;;;;7.13;4.10;;;;;;;7.65;nan;-24030.66;4994170;28;20612;-75
2022/03/13 09:55:57;;;;;;;6.03;4.40;;;;;;;8.01;nan;-24040.72;4995079;28;20641;-75
2022/03/13 09:58:22;;;;;;;6.70;4.17;;;;;;;8.17;nan;-24045.25;4993685;28;20180;-75
2022/03/13 10:00:48;;;;;;;5.40;4.10;;;;;;;8.02;nan;-24041.00;4992135;28;20722;-75
2022/03/13 10:03:13;;;;;;;5.60;4.07;;;;;;;7.52;nan;-24026.97;4994347;28;20203;-76
2022/03/13 10:05:44;;;;;;;5.10;4.17;;;;;;;7.71;nan;-24032.22;4991534;28;20176;-75
2022/03/13 10:08:10;;;;;;;5.60;4.30;;;;;;;7.51;nan;-24026.84;4994293;28;20188;-75
2022/03/13 10:10:50;;;;;;;5.67;4.70;;;;;;;8.06;nan;-24042.00;4993672;28;20177;-76
2022/03/13 10:13:32;;;;;;;7.60;4.47;;;;;;;8.23;nan;-24046.81;4989315;28;20176;-75
2022/03/13 10:15:58;;;;;;;5.23;4.13;;;;;;;8.41;nan;-24052.06;4994800;28;20187;-75
2022/03/13 10:18:25;;;;;;;6.70;4.60;;;;;;;8.77;nan;-24062.09;4992977;28;20192;-74
2022/03/13 10:20:52;;;;;;;8.40;4.80;;;;;;;8.35;nan;-24050.22;4994775;28;20519;-76
2022/03/13 10:23:22;;;;;;;7.90;5.03;;;;;;;8.54;nan;-24055.47;4994825;28;20621;-76
2022/03/13 10:25:53;;;;;;;6.80;4.70;;;;;;;8.00;nan;-24040.59;4993792;28;20209;-73
2022/03/13 10:28:24;;;;;;;9.53;5.07;;;;;;;8.46;nan;-24053.34;4990604;28;20261;-75
2022/03/13 10:30:58;;;;;;;7.20;5.03;;;;;;;8.58;nan;-24056.59;4993656;28;20227;-75
2022/03/13 10:33:26;;;;;;;6.90;5.07;;;;;;;8.13;nan;-24044.13;4992185;28;20188;-76
2022/03/13 10:36:06;;;;;;;7.57;4.60;;;;;;;8.75;nan;-24061.53;4994642;28;20276;-75
2022/03/13 10:38:34;;;;;;;7.67;4.60;;;;;;;8.52;nan;-24054.88;4993621;28;20184;-76
2022/03/13 10:40:59;;;;;;;6.33;4.63;;;;;;;9.38;nan;-24079.06;4994557;28;20204;-76
2022/03/13 10:43:29;;;;;;;6.40;4.90;;;;;;;9.66;nan;-24086.97;4995010;28;20232;-76
2022/03/13 10:45:56;;;;;;;6.43;5.00;;;;;;;10.19;nan;-24101.69;4994538;28;20177;-76
2022/03/13 10:48:30;;;;;;;6.20;4.80;;;;;;;9.86;nan;-24092.34;4994675;28;20569;-75
2022/03/13 10:50:58;;;;;;;9.15;6.18;;;;;;;10.48;nan;-24109.72;4994190;28;20173;-75
2022/03/13 10:53:24;;;;;;;11.45;5.60;;;;;;;9.98;nan;-24095.88;4993918;28;20193;-75
2022/03/13 10:56:11;;;;;;;7.50;5.50;;;;;;;10.39;nan;-24107.19;4994443;28;20180;-75
2022/03/13 10:58:48;;;;;;;8.27;5.35;;;;;;;10.28;nan;-24104.06;4993017;28;20199;-74
2022/03/13 11:01:19;;;;;;;9.63;6.03;;;;;;;10.33;nan;-24105.50;4992223;28;20176;-75
2022/03/13 11:03:52;;;;;;;8.60;5.63;;;;;;;10.79;nan;-24118.47;4993803;28;20227;-75
2022/03/13 11:06:20;;;;;;;7.28;4.97;;;;;;;10.05;nan;-24097.72;4993265;28;20287;-77
2022/03/13 11:08:50;;;;;;;7.68;5.45;;;;;;;10.75;nan;-24117.19;4994303;28;20184;-77
2022/03/13 11:11:19;;;;;;;7.45;5.00;;;;;;;10.83;nan;-24119.59;4993876;28;20180;-75
2022/03/13 11:13:49;;;;;;;6.60;5.20;;;;;;;10.81;nan;-24118.91;4993796;28;20212;-76
2022/03/13 11:16:21;;;;;;;6.68;5.22;;;;;;;10.48;nan;-24109.72;4993979;28;20635;-74
2022/03/13 11:18:47;;;;;;;7.32;4.85;;;;;;;9.84;nan;-24091.78;4992977;28;20558;-78
2022/03/13 11:21:12;;;;;;;7.10;4.97;;;;;;;9.23;nan;-24074.84;4994135;28;20663;-74
2022/03/13 11:23:38;;;;;;;6.78;5.15;;;;;;;9.49;nan;-24082.03;4997085;28;20177;-75
2022/03/13 11:26:07;;;;;;;6.30;4.97;;;;;;;9.91;nan;-24093.91;4992455;28;20211;-76
2022/03/13 11:28:34;;;;;;;9.52;5.28;;;;;;;10.44;nan;-24108.59;4991855;28;20177;-77
2022/03/13 11:30:59;;;;;;;8.35;5.28;;;;;;;9.18;nan;-24073.41;4993610;28;20304;-76
2022/03/13 11:33:41;;;;;;;6.80;4.95;;;;;;;9.87;nan;-24092.78;4991599;28;20238;-76